Coral Topaz — 3ELB7 — position and weather

sailwx.info

Track history (hours):
 
Tides and Currents Weather Stations Pressure Air Temp Water Temp Dewpoint Dewpoint Depression Visibility Wind Speed Wind Dir Waves Ship Positions

Coral Topaz

Last reported at 2014-Sep-23 23:24 UTC. Time now 2014-Sep-24 00:21 UTC.
Position S 32°53' E 151°46'.

Length 225 m; draft 7.3 m.

Type: Ship. MMSI: 372904000.

Date/timePositionNaut miles runAvg speedWind from/ knotsBaromVisibWave heightAir tempDewpointWater temp
2014-Sep-23 23:24S 32°53' E 151°46'0 0.0
2014-Sep-23 22:30S 32°53' E 151°46'0 0.0
2014-Sep-23 21:30S 32°53' E 151°46'0 0.0
2014-Sep-23 20:30S 32°53' E 151°46'0 0.0
2014-Sep-23 19:33S 32°53' E 151°46'0 0.0
2014-Sep-23 18:30S 32°53' E 151°46'0 0.0
2014-Sep-23 17:33S 32°53' E 151°46'0 0.0
2014-Sep-23 16:33S 32°53' E 151°46'0 0.0
2014-Sep-23 15:30S 32°53' E 151°46'0 0.0
2014-Sep-23 14:30S 32°53' E 151°46'0 0.0
2014-Sep-23 13:33S 32°53' E 151°46'0 0.0
2014-Sep-23 12:30S 32°53' E 151°46'0 0.2
2014-Sep-23 11:33S 32°53' E 151°46'5 4.9
2014-Sep-23 10:33S 32°57' E 151°50'5 4.7
2014-Sep-23 09:33S 33°01' E 151°50'6 5.9
2014-Sep-23 08:33S 33°07' E 151°49'  
2014-Sep-20 14:10S 33°14' E 151°47'710.7
2014-Sep-20 13:33S 33°11' E 151°54'1111.3
2014-Sep-20 12:33S 33°05' E 152°05'1110.8
2014-Sep-20 11:34S 32°59' E 152°16'1010.1
2014-Sep-20 10:33S 32°52' E 152°24'10 9.9
2014-Sep-20 09:33S 32°44' E 152°32'9 9.4
2014-Sep-20 08:33S 32°37' E 152°39'13 1.4
2014-Sep-19 23:13S 32°29' E 152°52'1 2.0
2014-Sep-19 22:31S 32°30' E 152°51'2 1.9
2014-Sep-19 21:16S 32°32' E 152°48'2 2.3
2014-Sep-19 20:31S 32°33' E 152°47'2 2.1
2014-Sep-19 19:31S 32°34' E 152°45'2 1.8
2014-Sep-19 18:31S 32°36' E 152°44'2 1.7
2014-Sep-19 17:31S 32°37' E 152°42'2 1.7
2014-Sep-19 16:31S 32°38' E 152°41'2 1.7
2014-Sep-19 15:31S 32°40' E 152°40'2 1.6
2014-Sep-19 14:31S 32°41' E 152°39'2 1.7
2014-Sep-19 13:31S 32°43' E 152°39'4 1.7
2014-Sep-19 11:07S 32°47' E 152°36'1 1.6
2014-Sep-19 10:31S 32°47' E 152°36'4 1.9
2014-Sep-19 08:31S 32°51' E 152°35'2 2.0
2014-Sep-19 07:31S 32°53' E 152°34'2 2.1
2014-Sep-19 06:25S 32°55' E 152°33'2 2.2
2014-Sep-19 05:19S 32°57' E 152°32'2 2.2
2014-Sep-19 04:19S 32°59' E 152°31'2 2.3
2014-Sep-19 03:28S 33°01' E 152°30'4 2.2
2014-Sep-19 01:32S 33°05' E 152°28'5 2.1
2014-Sep-18 23:10S 33°09' E 152°25'1 2.0
2014-Sep-18 22:34S 33°10' E 152°24'1 1.4
2014-Sep-18 21:33S 33°11' E 152°23'9 9.3
2014-Sep-18 20:33S 33°03' E 152°18'8 8.3
2014-Sep-18 19:33S 32°57' E 152°11'1 1.3
2014-Sep-18 18:33S 32°57' E 152°12'2 1.6
2014-Sep-18 17:33S 32°58' E 152°14'2 1.7
2014-Sep-18 16:33S 32°60' E 152°15'2 1.8
2014-Sep-18 15:30S 33°01' E 152°17'2 1.7
2014-Sep-18 14:30S 33°02' E 152°18'2 1.6
2014-Sep-18 13:33S 33°03' E 152°20'2 1.8
2014-Sep-18 12:33S 33°05' E 152°21'2 1.9
2014-Sep-18 11:30S 33°06' E 152°23'6 6.2
2014-Sep-18 10:33S 33°02' E 152°28'1110.9
2014-Sep-18 09:33S 32°55' E 152°38'1110.8
2014-Sep-18 08:33S 32°49' E 152°48'8 0.6
2014-Sep-17 18:31S 32°57' E 152°49'3 2.6
2014-Sep-17 17:31S 32°59' E 152°47'12 1.7
2014-Sep-17 10:31S 33°08' E 152°38'11 0.6
2014-Sep-16 14:31S 33°13' E 152°26'1 1.0
2014-Sep-16 13:25S 33°12' E 152°25'1 1.0
2014-Sep-16 12:28S 33°12' E 152°24'1 1.1
2014-Sep-16 11:31S 33°11' E 152°23'1 1.3
2014-Sep-16 10:31S 33°10' E 152°23'2 1.5
2014-Sep-16 09:31S 33°08' E 152°23'2 2.0
2014-Sep-16 08:31S 33°06' E 152°23'1 1.0
2014-Sep-16 07:33S 33°05' E 152°24'10 9.9
2014-Sep-16 06:33S 33°13' E 152°16'10 9.3
2014-Sep-16 05:30S 33°20' E 152°08'9 9.7
2014-Sep-16 04:32S 33°27' E 152°01'15 0.8
2014-Sep-15 09:32S 33°14' E 152°10'1 1.4
2014-Sep-15 08:29S 33°14' E 152°11'2 1.7
2014-Sep-15 07:29S 33°13' E 152°13'3 2.4
2014-Sep-15 06:17S 33°11' E 152°16'2 2.5
2014-Sep-15 05:32S 33°10' E 152°17'2 2.3
2014-Sep-15 04:29S 33°08' E 152°20'2 2.3
2014-Sep-15 03:32S 33°07' E 152°22'2 2.1
2014-Sep-15 02:29S 33°06' E 152°24'2 1.7
2014-Sep-15 01:27S 33°04' E 152°25'8 9.4
2014-Sep-15 00:33S 32°58' E 152°19'2 2.0
2014-Sep-14 23:31S 32°57' E 152°17'1 0.5
2014-Sep-14 22:31S 32°57' E 152°17'0 0.4
2014-Sep-14 21:31S 32°57' E 152°18'0 0.4
2014-Sep-14 20:31S 32°58' E 152°18'0 0.4
2014-Sep-14 19:31S 32°58' E 152°18'1 0.6
2014-Sep-14 18:25S 32°59' E 152°18'1 0.6
2014-Sep-14 17:31S 32°59' E 152°17'1 0.8
2014-Sep-14 16:31S 32°60' E 152°17'1 1.0
2014-Sep-14 15:31S 33°01' E 152°16'1 0.9
2014-Sep-14 14:31S 33°01' E 152°16'1 0.7
2014-Sep-14 13:31S 33°02' E 152°15'0 0.1
2014-Sep-14 12:31S 33°02' E 152°15'1 0.9
2014-Sep-14 11:31S 33°01' E 152°15'5 5.6
2014-Sep-14 10:34S 32°56' E 152°14'6 5.6
2014-Sep-14 09:33S 32°50' E 152°14'9 8.7
2014-Sep-14 08:34S 32°45' E 152°22'1413.6
2014-Sep-14 07:34S 32°35' E 152°34'1413.5
2014-Sep-14 06:34S 32°26' E 152°46'  
Track history (hours):
 
Tides and Currents Weather Stations Pressure Air Temp Water Temp Dewpoint Dewpoint Depression Visibility Wind Speed Wind Dir Waves Ship Positions

Coral Topaz

Last reported at 2014-Sep-23 23:24 UTC. Time now 2014-Sep-24 00:21 UTC.
Position S 32°53' E 151°46'.

Length 225 m; draft 7.3 m.

Type: Ship. MMSI: 372904000.

Date/timePositionNaut miles runAvg speedWind from/ knotsBaromVisibWave heightAir tempDewpointWater temp
2014-Sep-23 23:24S 32°53' E 151°46'0 0.0
2014-Sep-23 22:30S 32°53' E 151°46'0 0.0
2014-Sep-23 21:30S 32°53' E 151°46'0 0.0
2014-Sep-23 20:30S 32°53' E 151°46'0 0.0
2014-Sep-23 19:33S 32°53' E 151°46'0 0.0
2014-Sep-23 18:30S 32°53' E 151°46'0 0.0
2014-Sep-23 17:33S 32°53' E 151°46'0 0.0
2014-Sep-23 16:33S 32°53' E 151°46'0 0.0
2014-Sep-23 15:30S 32°53' E 151°46'0 0.0
2014-Sep-23 14:30S 32°53' E 151°46'0 0.0
2014-Sep-23 13:33S 32°53' E 151°46'0 0.0
2014-Sep-23 12:30S 32°53' E 151°46'0 0.2
2014-Sep-23 11:33S 32°53' E 151°46'5 4.9
2014-Sep-23 10:33S 32°57' E 151°50'5 4.7
2014-Sep-23 09:33S 33°01' E 151°50'6 5.9
2014-Sep-23 08:33S 33°07' E 151°49'  
2014-Sep-20 14:10S 33°14' E 151°47'710.7
2014-Sep-20 13:33S 33°11' E 151°54'1111.3
2014-Sep-20 12:33S 33°05' E 152°05'1110.8
2014-Sep-20 11:34S 32°59' E 152°16'1010.1
2014-Sep-20 10:33S 32°52' E 152°24'10 9.9
2014-Sep-20 09:33S 32°44' E 152°32'9 9.4
2014-Sep-20 08:33S 32°37' E 152°39'13 1.4
2014-Sep-19 23:13S 32°29' E 152°52'1 2.0
2014-Sep-19 22:31S 32°30' E 152°51'2 1.9
2014-Sep-19 21:16S 32°32' E 152°48'2 2.3
2014-Sep-19 20:31S 32°33' E 152°47'2 2.1
2014-Sep-19 19:31S 32°34' E 152°45'2 1.8
2014-Sep-19 18:31S 32°36' E 152°44'2 1.7
2014-Sep-19 17:31S 32°37' E 152°42'2 1.7
2014-Sep-19 16:31S 32°38' E 152°41'2 1.7
2014-Sep-19 15:31S 32°40' E 152°40'2 1.6
2014-Sep-19 14:31S 32°41' E 152°39'2 1.7
2014-Sep-19 13:31S 32°43' E 152°39'4 1.7
2014-Sep-19 11:07S 32°47' E 152°36'1 1.6
2014-Sep-19 10:31S 32°47' E 152°36'4 1.9
2014-Sep-19 08:31S 32°51' E 152°35'2 2.0
2014-Sep-19 07:31S 32°53' E 152°34'2 2.1
2014-Sep-19 06:25S 32°55' E 152°33'2 2.2
2014-Sep-19 05:19S 32°57' E 152°32'2 2.2
2014-Sep-19 04:19S 32°59' E 152°31'2 2.3
2014-Sep-19 03:28S 33°01' E 152°30'4 2.2
2014-Sep-19 01:32S 33°05' E 152°28'5 2.1
2014-Sep-18 23:10S 33°09' E 152°25'1 2.0
2014-Sep-18 22:34S 33°10' E 152°24'1 1.4
2014-Sep-18 21:33S 33°11' E 152°23'9 9.3
2014-Sep-18 20:33S 33°03' E 152°18'8 8.3
2014-Sep-18 19:33S 32°57' E 152°11'1 1.3
2014-Sep-18 18:33S 32°57' E 152°12'2 1.6
2014-Sep-18 17:33S 32°58' E 152°14'2 1.7
2014-Sep-18 16:33S 32°60' E 152°15'2 1.8
2014-Sep-18 15:30S 33°01' E 152°17'2 1.7
2014-Sep-18 14:30S 33°02' E 152°18'2 1.6
2014-Sep-18 13:33S 33°03' E 152°20'2 1.8
2014-Sep-18 12:33S 33°05' E 152°21'2 1.9
2014-Sep-18 11:30S 33°06' E 152°23'6 6.2
2014-Sep-18 10:33S 33°02' E 152°28'1110.9
2014-Sep-18 09:33S 32°55' E 152°38'1110.8
2014-Sep-18 08:33S 32°49' E 152°48'8 0.6
2014-Sep-17 18:31S 32°57' E 152°49'3 2.6
2014-Sep-17 17:31S 32°59' E 152°47'12 1.7
2014-Sep-17 10:31S 33°08' E 152°38'11 0.6
2014-Sep-16 14:31S 33°13' E 152°26'1 1.0
2014-Sep-16 13:25S 33°12' E 152°25'1 1.0
2014-Sep-16 12:28S 33°12' E 152°24'1 1.1
2014-Sep-16 11:31S 33°11' E 152°23'1 1.3
2014-Sep-16 10:31S 33°10' E 152°23'2 1.5
2014-Sep-16 09:31S 33°08' E 152°23'2 2.0
2014-Sep-16 08:31S 33°06' E 152°23'1 1.0
2014-Sep-16 07:33S 33°05' E 152°24'10 9.9
2014-Sep-16 06:33S 33°13' E 152°16'10 9.3
2014-Sep-16 05:30S 33°20' E 152°08'9 9.7
2014-Sep-16 04:32S 33°27' E 152°01'15 0.8
2014-Sep-15 09:32S 33°14' E 152°10'1 1.4
2014-Sep-15 08:29S 33°14' E 152°11'2 1.7
2014-Sep-15 07:29S 33°13' E 152°13'3 2.4
2014-Sep-15 06:17S 33°11' E 152°16'2 2.5
2014-Sep-15 05:32S 33°10' E 152°17'2 2.3
2014-Sep-15 04:29S 33°08' E 152°20'2 2.3
2014-Sep-15 03:32S 33°07' E 152°22'2 2.1
2014-Sep-15 02:29S 33°06' E 152°24'2 1.7
2014-Sep-15 01:27S 33°04' E 152°25'8 9.4
2014-Sep-15 00:33S 32°58' E 152°19'2 2.0
2014-Sep-14 23:31S 32°57' E 152°17'1 0.5
2014-Sep-14 22:31S 32°57' E 152°17'0 0.4
2014-Sep-14 21:31S 32°57' E 152°18'0 0.4
2014-Sep-14 20:31S 32°58' E 152°18'0 0.4
2014-Sep-14 19:31S 32°58' E 152°18'1 0.6
2014-Sep-14 18:25S 32°59' E 152°18'1 0.6
2014-Sep-14 17:31S 32°59' E 152°17'1 0.8
2014-Sep-14 16:31S 32°60' E 152°17'1 1.0
2014-Sep-14 15:31S 33°01' E 152°16'1 0.9
2014-Sep-14 14:31S 33°01' E 152°16'1 0.7
2014-Sep-14 13:31S 33°02' E 152°15'0 0.1
2014-Sep-14 12:31S 33°02' E 152°15'1 0.9
2014-Sep-14 11:31S 33°01' E 152°15'5 5.6
2014-Sep-14 10:34S 32°56' E 152°14'6 5.6
2014-Sep-14 09:33S 32°50' E 152°14'9 8.7
2014-Sep-14 08:34S 32°45' E 152°22'1413.6
2014-Sep-14 07:34S 32°35' E 152°34'1413.5
2014-Sep-14 06:34S 32°26' E 152°46'  

Dump ship's entire track history